Dominion, Canada
Current Conditions -  °F | °C
As of 8:06 PM on Friday 28 Nov 2014 (Local Time) from CYQY Reporting Station
Snow Showers Snow Showers  
Wind Chill: 21°   Ceiling: 1500
Heat Index: 30°   Visibility: 6mi
Dew Point: 27°   Wind: 10mph
Humidity: 86%   Direction: 330°NNW
Pressure: 29.86"   Gusts: 18mph
Location:  46.22°N, 60.02°W
Report Text: CYQY 290006Z 33009G16KT 6SM -SHSN OVC015 M01/M03 A2986 RMK SC8 SLP114
Loading
Personal Weather Stations






























Interactive Weather Map New forecast layout! Learn more

10-Day Weather Forecast

Advertisements
Track Severe Weather on mobile